METAR Data
IDs: Format: Raw Decoded Include TAF

Data at: 2027 UTC 16 Jan 2019

KMGJ 161954Z AUTO 29010KT 10SM BKN045 OVC055 03/M06 A2999 RMK AO2 SLP158 T00331061